createdAt,value
2018-09-24T00:01:31.627Z,37.77
2018-09-24T00:04:06.276Z,36.50
2018-09-24T00:06:39.811Z,35.23
2018-09-24T00:09:12.847Z,37.00
2018-09-24T00:11:45.480Z,33.77
2018-09-24T00:14:20.384Z,34.50
2018-09-24T00:16:53.403Z,34.17
2018-09-24T00:19:26.144Z,42.67
2018-09-24T00:21:59.634Z,36.23
2018-09-24T00:24:32.952Z,34.20
2018-09-24T00:27:05.513Z,31.80
2018-09-24T00:29:39.799Z,31.00
2018-09-24T00:32:16.240Z,28.73
2018-09-24T00:34:48.748Z,35.00
2018-09-24T00:37:21.367Z,30.00
2018-09-24T00:39:54.548Z,30.77
2018-09-24T00:42:27.143Z,29.57
2018-09-24T00:44:59.646Z,28.77
2018-09-24T00:47:32.644Z,30.17
2018-09-24T00:50:05.436Z,30.33
2018-09-24T00:52:38.289Z,30.00
2018-09-24T00:55:11.381Z,31.63
2018-09-24T00:57:44.030Z,33.87
2018-09-24T01:00:17.602Z,34.63
2018-09-24T01:02:51.257Z,34.47
2018-09-24T01:05:24.056Z,35.40
2018-09-24T01:07:56.575Z,37.43
2018-09-24T01:10:29.529Z,36.43
2018-09-24T01:13:02.133Z,39.20
2018-09-24T01:15:34.749Z,37.43
2018-09-24T01:18:07.698Z,36.17
2018-09-24T01:20:40.349Z,35.97
2018-09-24T01:23:12.836Z,36.90
2018-09-24T01:25:46.900Z,38.60
2018-09-24T01:28:19.476Z,38.83
2018-09-24T01:30:52.168Z,41.03
2018-09-24T01:33:25.110Z,48.50
2018-09-24T01:35:57.703Z,41.97
2018-09-24T01:38:30.277Z,36.73
2018-09-24T01:41:04.304Z,37.67
2018-09-24T01:43:37.105Z,34.07
2018-09-24T01:46:10.169Z,34.77
2018-09-24T01:48:44.060Z,35.50
2018-09-24T01:51:16.659Z,36.43
2018-09-24T01:53:49.204Z,37.57
2018-09-24T01:56:23.429Z,46.70
2018-09-24T01:58:57.196Z,41.00
2018-09-24T02:01:29.913Z,38.77
2018-09-24T02:04:04.846Z,36.57
2018-09-24T02:06:37.381Z,38.00
2018-09-24T02:09:09.795Z,35.40
2018-09-24T02:11:43.451Z,36.17
2018-09-24T02:14:15.957Z,35.47
2018-09-24T02:16:48.412Z,36.43
2018-09-24T02:19:21.366Z,46.42
2018-09-24T02:21:53.929Z,41.77
2018-09-24T02:24:26.541Z,39.73
2018-09-24T02:27:08.613Z,45.45
2018-09-24T02:29:41.296Z,40.20
2018-09-24T02:32:13.796Z,38.60
2018-09-24T02:34:48.165Z,36.43
2018-09-24T02:37:21.165Z,36.60
2018-09-24T02:39:54.094Z,35.83
2018-09-24T02:42:28.056Z,43.42
2018-09-24T02:45:03.902Z,41.57
2018-09-24T02:47:36.533Z,40.00
2018-09-24T02:50:10.338Z,43.20
2018-09-24T02:52:43.284Z,39.20
2018-09-24T02:55:17.308Z,37.80
2018-09-24T02:57:50.516Z,35.17
2018-09-24T03:00:23.133Z,34.00
2018-09-24T03:02:55.675Z,41.85
2018-09-24T03:05:29.194Z,42.00
2018-09-24T03:08:09.812Z,34.17
2018-09-24T03:10:42.408Z,31.23
2018-09-24T03:13:15.376Z,38.25
2018-09-24T03:15:48.004Z,37.03
2018-09-24T03:18:20.481Z,37.65
2018-09-24T03:20:53.359Z,30.80
2018-09-24T03:23:25.872Z,30.23
2018-09-24T03:25:58.368Z,30.00
2018-09-24T03:28:52.974Z,28.10
2018-09-24T03:31:35.982Z,29.00
2018-09-24T03:34:16.596Z,28.27
2018-09-24T03:36:50.119Z,27.17
2018-09-24T03:39:24.184Z,28.37
2018-09-24T03:41:58.263Z,35.28
2018-09-24T03:44:30.981Z,30.27
2018-09-24T03:47:03.545Z,35.37
2018-09-24T03:49:36.569Z,33.00
2018-09-24T03:52:09.044Z,31.60
2018-09-24T03:54:42.237Z,29.77
2018-09-24T03:57:15.018Z,29.83
2018-09-24T03:59:47.647Z,30.13
2018-09-24T04:02:20.216Z,28.27
2018-09-24T04:04:58.740Z,29.57
2018-09-24T04:07:37.125Z,29.03
2018-09-24T04:10:15.672Z,28.70
2018-09-24T04:12:53.340Z,28.63
2018-09-24T04:15:31.741Z,31.30
2018-09-24T04:18:09.965Z,27.00
2018-09-24T04:20:49.436Z,28.27
2018-09-24T04:23:27.377Z,25.10
2018-09-24T04:26:07.479Z,27.13
2018-09-24T04:28:45.645Z,29.07
2018-09-24T04:31:28.421Z,26.40
2018-09-24T04:34:06.661Z,25.57
2018-09-24T04:36:45.384Z,24.37
2018-09-24T04:39:23.674Z,32.00
2018-09-24T04:42:03.033Z,26.53
2018-09-24T04:44:41.366Z,30.83
2018-09-24T04:47:21.724Z,25.70
2018-09-24T04:49:59.892Z,29.67
2018-09-24T04:52:38.465Z,27.53
2018-09-24T04:55:16.632Z,24.37
2018-09-24T04:57:55.808Z,22.20
2018-09-24T05:00:33.803Z,21.60
2018-09-24T05:03:12.066Z,22.43
2018-09-24T05:05:50.381Z,18.97
2018-09-24T05:08:29.023Z,23.63
2018-09-24T05:11:07.022Z,25.73
2018-09-24T05:13:45.379Z,20.50
2018-09-24T05:16:24.280Z,21.00
2018-09-24T05:19:04.020Z,19.37
2018-09-24T05:21:42.088Z,21.93
2018-09-24T05:24:21.132Z,20.13
2018-09-24T05:26:59.092Z,19.13
2018-09-24T05:29:37.373Z,25.10
2018-09-24T05:32:31.993Z,21.30
2018-09-24T05:35:10.609Z,21.93
2018-09-24T05:37:48.922Z,25.00
2018-09-24T05:40:27.448Z,20.80
2018-09-24T05:43:05.601Z,24.67
2018-09-24T05:45:43.905Z,27.40
2018-09-24T05:48:22.605Z,19.70
2018-09-24T05:51:02.754Z,19.37
2018-09-24T05:53:40.977Z,19.80
2018-09-24T05:56:21.247Z,19.67
2018-09-24T05:58:59.264Z,18.77
2018-09-24T06:01:40.260Z,17.43
2018-09-24T06:04:19.286Z,17.53
2018-09-24T06:06:57.884Z,18.50
2018-09-24T06:09:36.405Z,17.93
2018-09-24T06:12:14.864Z,18.00
2018-09-24T06:14:53.449Z,18.73
2018-09-24T06:17:32.232Z,17.83
2018-09-24T06:20:12.427Z,18.30
2018-09-24T06:22:52.070Z,21.50
2018-09-24T06:25:30.494Z,21.15
2018-09-24T06:28:08.829Z,19.17
2018-09-24T06:30:46.803Z,18.43
2018-09-24T06:33:26.177Z,16.73
2018-09-24T06:36:04.254Z,17.60
2018-09-24T06:38:42.556Z,16.53
2018-09-24T06:41:22.039Z,16.00
2018-09-24T06:44:01.380Z,16.63
2018-09-24T06:46:40.792Z,19.67
2018-09-24T06:49:20.220Z,17.20
2018-09-24T06:51:59.726Z,16.73
2018-09-24T06:54:39.792Z,17.07
2018-09-24T06:57:18.191Z,19.02
2018-09-24T06:59:57.372Z,17.40
2018-09-24T07:02:35.547Z,16.60
2018-09-24T07:05:14.132Z,17.05
2018-09-24T07:07:52.222Z,16.37
2018-09-24T07:10:31.018Z,16.40
2018-09-24T07:13:10.557Z,17.07
2018-09-24T07:15:52.600Z,16.57
2018-09-24T07:18:34.414Z,16.93
2018-09-24T07:21:13.486Z,17.10
2018-09-24T07:23:52.849Z,15.10
2018-09-24T07:26:31.734Z,15.40
2018-09-24T07:29:09.832Z,14.80
2018-09-24T07:31:48.553Z,14.97
2018-09-24T07:34:26.652Z,15.57
2018-09-24T07:37:07.708Z,14.73
2018-09-24T07:39:48.596Z,16.27
2018-09-24T07:42:28.758Z,15.90
2018-09-24T07:45:12.567Z,15.33
2018-09-24T07:47:56.968Z,14.43
2018-09-24T07:50:35.176Z,14.67
2018-09-24T07:53:15.693Z,14.70
2018-09-24T07:55:54.976Z,15.50
2018-09-24T07:58:34.652Z,15.55
2018-09-24T08:01:14.367Z,15.52
2018-09-24T08:03:56.637Z,15.80
2018-09-24T08:06:35.616Z,16.43
2018-09-24T08:09:17.402Z,16.73
2018-09-24T08:11:57.319Z,17.67
2018-09-24T08:14:37.436Z,16.13
2018-09-24T08:17:15.365Z,14.77
2018-09-24T08:19:55.569Z,14.93
2018-09-24T08:22:33.532Z,14.30
2018-09-24T08:25:11.931Z,9.40
2018-09-24T08:27:50.851Z,8.73
2018-09-24T08:30:29.309Z,7.67
2018-09-24T08:33:08.060Z,5.80
2018-09-24T08:35:50.168Z,4.70
2018-09-24T08:38:30.714Z,4.20
2018-09-24T08:41:11.945Z,4.63
2018-09-24T08:43:52.217Z,3.83
2018-09-24T08:46:30.624Z,3.73
2018-09-24T08:49:10.363Z,3.50
2018-09-24T08:51:49.933Z,2.40
2018-09-24T08:54:30.627Z,2.83
2018-09-24T08:57:14.626Z,2.67
2018-09-24T08:59:54.509Z,2.63
2018-09-24T09:02:35.264Z,2.83
2018-09-24T09:05:15.443Z,2.63
2018-09-24T09:07:54.033Z,2.30
2018-09-24T09:10:32.224Z,2.40
2018-09-24T09:13:12.612Z,2.90
2018-09-24T09:15:51.677Z,2.90
2018-09-24T09:18:31.292Z,2.47
2018-09-24T09:21:10.577Z,2.57
2018-09-24T09:23:48.517Z,2.40
2018-09-24T09:26:28.344Z,2.40
2018-09-24T09:29:06.838Z,2.17
2018-09-24T09:31:47.743Z,1.90
2018-09-24T09:34:26.303Z,2.10
2018-09-24T09:37:04.376Z,1.60
2018-09-24T09:39:43.750Z,1.90
2018-09-24T09:42:22.811Z,1.87
2018-09-24T09:45:02.625Z,1.50
2018-09-24T09:47:43.707Z,2.20
2018-09-24T09:50:23.689Z,1.97
2018-09-24T09:53:02.229Z,1.80
2018-09-24T09:55:42.084Z,2.30
2018-09-24T09:58:20.087Z,1.63
2018-09-24T10:00:59.168Z,1.47
2018-09-24T10:03:39.569Z,1.80
2018-09-24T10:06:19.628Z,1.57
2018-09-24T10:08:58.956Z,1.63
2018-09-24T10:11:37.536Z,1.20
2018-09-24T10:14:16.782Z,1.20
2018-09-24T10:16:58.735Z,1.50
2018-09-24T10:19:37.842Z,1.70
2018-09-24T10:22:18.758Z,1.60
2018-09-24T10:24:58.734Z,1.27
2018-09-24T10:27:37.149Z,1.23
2018-09-24T10:30:15.139Z,1.40
2018-09-24T10:32:54.620Z,1.73
2018-09-24T10:35:32.807Z,1.60
2018-09-24T10:38:12.113Z,1.48
2018-09-24T10:40:50.154Z,1.20
2018-09-24T10:43:28.384Z,1.40
2018-09-24T10:46:06.396Z,1.40
2018-09-24T10:48:45.939Z,1.50
2018-09-24T10:51:29.628Z,1.33
2018-09-24T10:54:10.519Z,1.50
2018-09-24T10:56:49.686Z,1.57
2018-09-24T10:59:30.065Z,1.80
2018-09-24T11:02:09.162Z,0.90
2018-09-24T11:04:48.727Z,1.40
2018-09-24T11:07:28.553Z,1.20
2018-09-24T11:10:07.594Z,0.90
2018-09-24T11:12:46.092Z,0.93
2018-09-24T11:15:26.458Z,1.00
2018-09-24T11:18:07.805Z,1.20
2018-09-24T11:20:46.478Z,1.20
2018-09-24T11:23:36.678Z,1.20
2018-09-24T11:29:01.878Z,1.90
2018-09-24T11:31:40.189Z,1.40
2018-09-24T11:34:18.220Z,1.50
2018-09-24T11:36:56.989Z,1.27
2018-09-24T11:39:35.057Z,1.40
2018-09-24T11:42:13.430Z,1.63
2018-09-24T11:44:51.352Z,1.30
2018-09-24T11:47:29.955Z,1.65
2018-09-24T11:50:08.248Z,1.30
2018-09-24T11:52:46.450Z,1.67
2018-09-24T11:55:24.847Z,1.30
2018-09-24T11:58:05.704Z,1.30
2018-09-24T12:00:44.579Z,1.47
2018-09-24T12:03:26.295Z,1.48
2018-09-24T12:06:06.516Z,1.00
2018-09-24T12:08:46.565Z,1.20
2018-09-24T12:11:25.214Z,1.00
2018-09-24T12:14:07.513Z,1.30
2018-09-24T12:16:46.501Z,1.40
2018-09-24T12:19:28.493Z,1.60
2018-09-24T12:22:06.647Z,1.30
2018-09-24T12:24:46.746Z,1.30
2018-09-24T12:27:26.085Z,1.00
2018-09-24T12:30:05.057Z,1.57
2018-09-24T12:32:46.069Z,1.00
2018-09-24T12:35:26.541Z,1.67
2018-09-24T12:38:06.472Z,1.50
2018-09-24T12:40:46.984Z,1.30
2018-09-24T12:43:25.613Z,1.13
2018-09-24T12:46:06.625Z,1.20
2018-09-24T12:48:47.489Z,1.50
2018-09-24T12:51:28.625Z,0.93
2018-09-24T12:54:12.010Z,1.30
2018-09-24T12:56:53.196Z,2.15
2018-09-24T12:59:32.697Z,1.50
2018-09-24T13:02:13.101Z,1.10
2018-09-24T13:04:54.725Z,1.03
2018-09-24T13:07:37.941Z,1.47
2018-09-24T13:10:19.355Z,1.33
2018-09-24T13:13:16.019Z,1.30
2018-09-24T13:15:55.001Z,1.43
2018-09-24T13:18:39.260Z,1.80
2018-09-24T13:21:21.265Z,1.43
2018-09-24T13:24:09.679Z,1.33
2018-09-24T13:26:50.271Z,0.93
2018-09-24T13:29:29.807Z,1.00
2018-09-24T13:32:17.308Z,1.20
2018-09-24T13:34:56.853Z,1.33
2018-09-24T13:37:36.885Z,1.20
2018-09-24T13:40:16.256Z,1.30
2018-09-24T13:42:54.702Z,1.00
2018-09-24T13:45:33.194Z,1.07
2018-09-24T13:48:12.000Z,1.30
2018-09-24T13:50:51.136Z,1.33
2018-09-24T13:53:29.046Z,1.20
2018-09-24T13:56:11.187Z,1.10
2018-09-24T13:58:49.160Z,1.93
2018-09-24T14:01:28.748Z,1.73
2018-09-24T14:04:07.856Z,1.60
2018-09-24T14:06:46.248Z,1.53
2018-09-24T14:09:24.505Z,1.50
2018-09-24T14:12:04.545Z,1.77
2018-09-24T14:14:42.528Z,1.60
2018-09-24T14:17:22.221Z,1.70
2018-09-24T14:20:00.641Z,1.80
2018-09-24T14:22:39.947Z,1.58
2018-09-24T14:25:18.242Z,1.40
2018-09-24T14:27:56.449Z,1.10
2018-09-24T14:30:41.286Z,1.77
2018-09-24T14:33:27.184Z,1.90
2018-09-24T14:36:12.599Z,1.50
2018-09-24T14:39:05.251Z,1.33
2018-09-24T14:42:20.184Z,1.50
2018-09-24T14:45:04.253Z,1.60
2018-09-24T14:47:57.897Z,1.50
2018-09-24T14:50:43.622Z,1.20
2018-09-24T14:53:28.273Z,1.40
2018-09-24T14:56:09.675Z,1.37
2018-09-24T14:58:48.631Z,1.40
2018-09-24T15:01:27.480Z,1.53
2018-09-24T15:04:06.236Z,1.77
2018-09-24T15:06:47.229Z,1.17
2018-09-24T15:09:29.881Z,1.43
2018-09-24T15:12:14.017Z,1.50
2018-09-24T15:14:52.119Z,1.20
2018-09-24T15:17:31.420Z,1.20
2018-09-24T15:20:11.603Z,1.57
2018-09-24T15:22:52.787Z,1.17
2018-09-24T15:25:34.193Z,1.27
2018-09-24T15:28:12.411Z,1.47
2018-09-24T15:30:50.980Z,2.13
2018-09-24T15:33:33.439Z,2.33
2018-09-24T15:36:11.936Z,2.07
2018-09-24T15:38:52.611Z,1.60
2018-09-24T15:41:34.626Z,1.90
2018-09-24T15:44:16.458Z,1.57
2018-09-24T15:46:58.505Z,1.77
2018-09-24T15:49:37.606Z,1.80
2018-09-24T15:52:17.089Z,1.20
2018-09-24T15:54:58.324Z,1.77
2018-09-24T15:57:42.769Z,1.40
2018-09-24T16:00:22.727Z,1.97
2018-09-24T16:03:03.544Z,1.30
2018-09-24T16:05:42.589Z,1.60
2018-09-24T16:08:22.705Z,1.98
2018-09-24T16:11:02.485Z,1.70
2018-09-24T16:13:42.245Z,1.97
2018-09-24T16:16:28.677Z,2.00
2018-09-24T16:19:07.211Z,1.80
2018-09-24T16:21:47.376Z,2.37
2018-09-24T16:24:27.680Z,1.90
2018-09-24T16:27:16.736Z,2.27
2018-09-24T16:29:56.744Z,1.67
2018-09-24T16:32:36.870Z,1.50
2018-09-24T16:35:16.752Z,2.00
2018-09-24T16:37:56.069Z,1.77
2018-09-24T16:40:38.447Z,1.90
2018-09-24T16:43:22.685Z,1.83
2018-09-24T16:46:03.613Z,1.60
2018-09-24T16:48:41.829Z,3.60
2018-09-24T16:51:20.698Z,1.70
2018-09-24T16:54:02.943Z,1.80
2018-09-24T16:56:43.966Z,1.53
2018-09-24T16:59:24.104Z,2.00
2018-09-24T17:02:03.024Z,1.90
2018-09-24T17:04:41.513Z,2.73
2018-09-24T17:07:21.600Z,2.10
2018-09-24T17:10:00.545Z,2.00
2018-09-24T17:12:40.498Z,2.40
2018-09-24T17:15:21.517Z,2.10
2018-09-24T17:18:01.783Z,1.70
2018-09-24T17:20:41.817Z,3.90
2018-09-24T17:23:26.388Z,2.67
2018-09-24T17:26:06.601Z,2.10
2018-09-24T17:28:54.287Z,3.90
2018-09-24T17:31:35.766Z,2.80
2018-09-24T17:34:19.777Z,1.80
2018-09-24T17:37:00.054Z,2.00
2018-09-24T17:39:40.634Z,1.20
2018-09-24T17:42:22.053Z,1.70
2018-09-24T17:45:03.229Z,1.40
2018-09-24T17:47:44.518Z,1.60
2018-09-24T17:50:25.187Z,2.00
2018-09-24T17:53:05.183Z,1.83
2018-09-24T17:55:45.115Z,1.53
2018-09-24T17:58:26.436Z,1.98
2018-09-24T18:01:07.685Z,2.37
2018-09-24T18:03:48.845Z,1.87
2018-09-24T18:06:29.136Z,2.27
2018-09-24T18:09:08.165Z,2.03
2018-09-24T18:11:48.546Z,1.93
2018-09-24T18:14:28.700Z,1.37
2018-09-24T18:17:07.343Z,1.83
2018-09-24T18:19:45.612Z,1.67
2018-09-24T18:22:24.647Z,2.20
2018-09-24T18:25:03.190Z,2.40
2018-09-24T18:27:42.220Z,2.20
2018-09-24T18:30:25.563Z,2.53
2018-09-24T18:33:05.053Z,3.07
2018-09-24T18:35:44.241Z,3.30
2018-09-24T18:38:23.541Z,3.45
2018-09-24T18:41:02.023Z,3.00
2018-09-24T18:43:42.402Z,2.50
2018-09-24T18:46:20.930Z,2.40
2018-09-24T18:48:59.503Z,2.00
2018-09-24T18:51:37.923Z,2.20
2018-09-24T18:54:19.142Z,2.08
2018-09-24T18:57:00.563Z,1.87
2018-09-24T18:59:38.752Z,2.77
2018-09-24T19:02:25.089Z,3.77
2018-09-24T19:05:07.439Z,3.03
2018-09-24T19:07:46.546Z,3.97
2018-09-24T19:10:26.836Z,4.85
2018-09-24T19:13:07.334Z,3.83
2018-09-24T19:15:48.011Z,2.83
2018-09-24T19:18:27.176Z,2.62
2018-09-24T19:21:08.168Z,2.47
2018-09-24T19:23:49.794Z,2.50
2018-09-24T19:26:38.769Z,1.80
2018-09-24T19:29:42.461Z,2.10
2018-09-24T19:32:21.505Z,2.20
2018-09-24T19:35:02.636Z,1.60
2018-09-24T19:37:41.057Z,1.67
2018-09-24T19:40:21.532Z,1.37
2018-09-24T19:43:18.672Z,1.80
2018-09-24T19:46:00.500Z,2.33
2018-09-24T19:48:41.569Z,2.20
2018-09-24T19:51:19.890Z,2.10
2018-09-24T19:54:02.237Z,1.60
2018-09-24T19:56:43.157Z,1.70
2018-09-24T19:59:24.815Z,1.47
2018-09-24T20:02:15.951Z,1.90
2018-09-24T20:04:56.351Z,1.70
2018-09-24T20:07:37.266Z,1.50
2018-09-24T20:10:18.442Z,2.13
2018-09-24T20:12:57.942Z,1.70
2018-09-24T20:15:36.181Z,1.60
2018-09-24T20:18:15.934Z,1.87
2018-09-24T20:20:56.038Z,2.00
2018-09-24T20:23:37.459Z,1.60
2018-09-24T20:26:16.530Z,1.53
2018-09-24T20:28:57.915Z,1.33
2018-09-24T20:31:42.169Z,1.37
2018-09-24T20:34:24.840Z,1.20
2018-09-24T20:37:11.810Z,1.70
2018-09-24T20:39:53.848Z,1.33
2018-09-24T20:42:38.162Z,1.63
2018-09-24T20:45:17.662Z,3.15
2018-09-24T20:47:59.836Z,2.00
2018-09-24T20:50:39.327Z,1.57
2018-09-24T20:53:19.338Z,1.70
2018-09-24T20:55:58.381Z,1.60
2018-09-24T20:58:37.697Z,1.53
2018-09-24T21:01:19.209Z,1.70
2018-09-24T21:04:00.323Z,2.17
2018-09-24T21:06:38.817Z,1.70
2018-09-24T21:09:18.886Z,1.73
2018-09-24T21:11:57.357Z,2.00
2018-09-24T21:14:39.192Z,2.27
2018-09-24T21:17:17.928Z,2.40
2018-09-24T21:19:57.276Z,2.27
2018-09-24T21:22:36.608Z,2.62
2018-09-24T21:25:14.786Z,2.87
2018-09-24T21:28:00.821Z,3.60
2018-09-24T21:30:47.098Z,2.87
2018-09-24T21:33:25.531Z,2.60
2018-09-24T21:36:03.703Z,2.60
2018-09-24T21:38:44.188Z,2.40
2018-09-24T21:41:24.197Z,2.77
2018-09-24T21:44:03.493Z,2.87
2018-09-24T21:46:50.030Z,2.53
2018-09-24T21:49:29.288Z,2.20
2018-09-24T21:52:08.761Z,2.47
2018-09-24T21:54:47.184Z,3.62
2018-09-24T21:57:25.204Z,2.80
2018-09-24T22:00:03.786Z,2.93
2018-09-24T22:02:42.044Z,2.50
2018-09-24T22:05:24.649Z,2.63
2018-09-24T22:08:04.161Z,3.10
2018-09-24T22:10:42.513Z,3.30
2018-09-24T22:13:22.488Z,2.70
2018-09-24T22:16:01.808Z,2.70
2018-09-24T22:18:39.881Z,3.10
2018-09-24T22:21:19.187Z,3.07
2018-09-24T22:23:57.497Z,2.50
2018-09-24T22:26:36.100Z,3.23
2018-09-24T22:29:14.219Z,2.67
2018-09-24T22:31:52.941Z,2.77
2018-09-24T22:34:31.357Z,3.67
2018-09-24T22:37:09.592Z,4.28
2018-09-24T22:39:49.509Z,4.50
2018-09-24T22:42:28.022Z,4.17
2018-09-24T22:45:07.368Z,5.00
2018-09-24T22:47:46.641Z,3.97
2018-09-24T22:50:27.868Z,3.95
2018-09-24T22:53:07.496Z,3.10
2018-09-24T22:55:45.496Z,3.47
2018-09-24T22:58:24.024Z,3.60
2018-09-24T23:01:02.860Z,3.37
2018-09-24T23:03:41.176Z,3.97
2018-09-24T23:06:19.126Z,4.47
2018-09-24T23:08:57.425Z,3.90
2018-09-24T23:11:36.668Z,3.63
2018-09-24T23:14:15.135Z,3.67
2018-09-24T23:16:53.615Z,3.90
2018-09-24T23:19:32.144Z,5.43
2018-09-24T23:22:10.846Z,6.13
2018-09-24T23:24:49.157Z,4.37
2018-09-24T23:27:27.097Z,4.00
2018-09-24T23:30:05.573Z,3.93
2018-09-24T23:32:44.069Z,3.27
2018-09-24T23:35:24.073Z,4.70
2018-09-24T23:38:02.547Z,4.77
2018-09-24T23:40:40.795Z,5.50
2018-09-24T23:43:18.968Z,7.93
2018-09-24T23:45:57.645Z,5.10
2018-09-24T23:48:35.804Z,6.47
2018-09-24T23:51:14.844Z,5.70
2018-09-24T23:53:53.080Z,5.70
2018-09-24T23:56:31.593Z,5.65
2018-09-24T23:59:10.491Z,5.23
